createdAt,value
2022-10-15T00:00:36.545Z,1.50
2022-10-15T00:01:38.119Z,1.40
2022-10-15T00:02:39.472Z,1.63
2022-10-15T00:03:41.868Z,1.50
2022-10-15T00:04:43.242Z,2.47
2022-10-15T00:05:44.569Z,1.60
2022-10-15T00:06:45.941Z,1.43
2022-10-15T00:07:47.331Z,1.30
2022-10-15T00:08:48.793Z,1.40
2022-10-15T00:09:50.166Z,1.23
2022-10-15T00:10:51.470Z,1.43
2022-10-15T00:11:52.775Z,1.50
2022-10-15T00:12:54.146Z,1.47
2022-10-15T00:13:56.898Z,1.50
2022-10-15T00:14:58.215Z,1.50
2022-10-15T00:15:59.877Z,1.53
2022-10-15T00:17:01.230Z,1.53
2022-10-15T00:18:02.516Z,1.90
2022-10-15T00:19:04.377Z,1.60
2022-10-15T00:20:07.427Z,1.43
2022-10-15T00:21:09.732Z,1.50
2022-10-15T00:22:11.061Z,1.40
2022-10-15T00:23:12.340Z,1.57
2022-10-15T00:24:13.645Z,1.67
2022-10-15T00:25:14.933Z,1.53
2022-10-15T00:26:18.022Z,1.70
2022-10-15T00:27:19.436Z,1.60
2022-10-15T00:28:20.863Z,1.43
2022-10-15T00:29:23.586Z,1.30
2022-10-15T00:30:28.515Z,1.30
2022-10-15T00:31:30.712Z,1.30
2022-10-15T00:32:32.572Z,1.20
2022-10-15T00:33:34.254Z,1.17
2022-10-15T00:34:36.208Z,1.50
2022-10-15T00:35:37.593Z,1.70
2022-10-15T00:36:38.927Z,1.20
2022-10-15T00:37:40.233Z,1.40
2022-10-15T00:38:41.911Z,1.43
2022-10-15T00:39:43.304Z,1.20
2022-10-15T00:40:44.857Z,1.50
2022-10-15T00:41:46.585Z,1.27
2022-10-15T00:42:47.902Z,1.00
2022-10-15T00:43:53.857Z,1.20
2022-10-15T00:44:57.496Z,1.07
2022-10-15T00:45:59.796Z,1.20
2022-10-15T00:47:07.155Z,1.00
2022-10-15T00:48:09.392Z,1.20
2022-10-15T00:49:28.522Z,0.80
2022-10-15T00:50:30.473Z,1.00
2022-10-15T00:51:34.172Z,0.90
2022-10-15T00:52:40.962Z,1.10
2022-10-15T00:53:42.407Z,1.00
2022-10-15T00:54:46.217Z,0.80
2022-10-15T00:55:47.666Z,0.80
2022-10-15T00:56:49.709Z,0.77
2022-10-15T00:57:51.113Z,0.90
2022-10-15T00:58:54.006Z,0.97
2022-10-15T00:59:58.257Z,1.00
2022-10-15T01:00:59.895Z,0.97
2022-10-15T01:02:01.625Z,1.00
2022-10-15T01:03:02.942Z,1.10
2022-10-15T01:04:05.353Z,0.97
2022-10-15T01:05:07.151Z,1.10
2022-10-15T01:06:08.512Z,0.90
2022-10-15T01:07:09.855Z,1.00
2022-10-15T01:08:13.152Z,1.00
2022-10-15T01:09:14.536Z,1.20
2022-10-15T01:10:16.244Z,1.00
2022-10-15T01:11:20.607Z,1.07
2022-10-15T01:12:34.920Z,1.00
2022-10-15T01:14:00.560Z,1.20
2022-10-15T01:15:23.160Z,1.30
2022-10-15T01:16:33.732Z,1.20
2022-10-15T01:17:44.893Z,0.90
2022-10-15T01:18:50.035Z,0.90
2022-10-15T01:19:51.656Z,1.00
2022-10-15T01:21:01.328Z,1.03
2022-10-15T01:22:12.063Z,1.20
2022-10-15T01:23:32.184Z,1.43
2022-10-15T01:24:33.730Z,1.10
2022-10-15T01:25:37.751Z,1.10
2022-10-15T01:26:49.354Z,1.00
2022-10-15T01:28:11.940Z,1.20
2022-10-15T01:29:16.994Z,1.50
2022-10-15T01:30:21.462Z,1.57
2022-10-15T01:31:34.908Z,1.60
2022-10-15T01:32:38.783Z,1.60
2022-10-15T01:33:55.224Z,1.40
2022-10-15T01:35:00.220Z,1.60
2022-10-15T01:36:21.329Z,1.50
2022-10-15T01:37:42.448Z,1.50
2022-10-15T01:39:03.712Z,1.60
2022-10-15T01:40:08.181Z,1.50
2022-10-15T01:41:18.633Z,1.47
2022-10-15T01:42:31.092Z,1.50
2022-10-15T01:43:45.583Z,1.70
2022-10-15T01:45:05.880Z,1.37
2022-10-15T01:46:34.649Z,1.40
2022-10-15T01:47:46.846Z,1.60
2022-10-15T01:48:49.050Z,1.60
2022-10-15T01:49:51.397Z,1.80
2022-10-15T01:50:53.751Z,1.50
2022-10-15T01:51:56.258Z,1.50
2022-10-15T01:52:59.106Z,1.70
2022-10-15T01:54:01.656Z,1.47
2022-10-15T01:55:05.663Z,1.70
2022-10-15T01:56:12.673Z,1.67
2022-10-15T01:57:14.844Z,1.70
2022-10-15T01:58:17.390Z,1.57
2022-10-15T01:59:20.864Z,1.60
2022-10-15T02:00:22.775Z,1.87
2022-10-15T02:01:24.258Z,1.80
2022-10-15T02:02:26.089Z,1.60
2022-10-15T02:03:27.815Z,2.00
2022-10-15T02:04:30.057Z,1.60
2022-10-15T02:05:40.883Z,1.77
2022-10-15T02:06:44.301Z,1.70
2022-10-15T02:07:54.792Z,1.70
2022-10-15T02:09:16.853Z,1.87
2022-10-15T02:10:22.668Z,2.03
2022-10-15T02:11:24.070Z,1.87
2022-10-15T02:12:38.513Z,1.77
2022-10-15T02:13:56.930Z,1.50
2022-10-15T02:15:05.760Z,1.60
2022-10-15T02:16:13.110Z,1.50
2022-10-15T02:17:15.394Z,1.70
2022-10-15T02:18:25.478Z,1.97
2022-10-15T02:19:32.214Z,1.70
2022-10-15T02:20:41.517Z,1.60
2022-10-15T02:21:48.166Z,1.80
2022-10-15T02:22:56.926Z,1.60
2022-10-15T02:24:13.921Z,1.23
2022-10-15T02:25:22.342Z,1.57
2022-10-15T02:26:26.291Z,1.67
2022-10-15T02:27:28.151Z,1.47
2022-10-15T02:28:29.848Z,1.60
2022-10-15T02:29:33.077Z,1.47
2022-10-15T02:30:36.051Z,1.30
2022-10-15T02:31:38.873Z,1.50
2022-10-15T02:32:42.379Z,1.53
2022-10-15T02:33:44.537Z,1.47
2022-10-15T02:34:48.528Z,1.40
2022-10-15T02:35:50.691Z,1.70
2022-10-15T02:36:52.708Z,2.03
2022-10-15T02:37:54.902Z,2.00
2022-10-15T02:38:57.799Z,1.43
2022-10-15T02:39:59.148Z,1.70
2022-10-15T02:41:01.048Z,1.70
2022-10-15T02:42:03.097Z,1.57
2022-10-15T02:43:08.754Z,1.33
2022-10-15T02:44:10.333Z,1.40
2022-10-15T02:45:12.652Z,1.73
2022-10-15T02:46:16.091Z,1.90
2022-10-15T02:47:19.240Z,1.57
2022-10-15T02:48:21.729Z,2.10
2022-10-15T02:49:23.199Z,2.10
2022-10-15T02:50:25.645Z,2.40
2022-10-15T02:51:27.087Z,1.93
2022-10-15T02:52:28.423Z,2.20
2022-10-15T02:53:29.772Z,2.40
2022-10-15T02:54:31.110Z,2.30
2022-10-15T02:55:34.863Z,2.13
2022-10-15T02:56:39.060Z,1.97
2022-10-15T02:57:40.539Z,2.03
2022-10-15T02:58:42.698Z,1.70
2022-10-15T02:59:44.022Z,1.80
2022-10-15T03:00:45.423Z,2.00
2022-10-15T03:01:47.581Z,1.77
2022-10-15T03:02:49.894Z,1.73
2022-10-15T03:03:52.884Z,1.60
2022-10-15T03:04:54.594Z,1.63
2022-10-15T03:05:57.313Z,1.77
2022-10-15T03:06:59.186Z,1.80
2022-10-15T03:08:00.776Z,1.67
2022-10-15T03:09:02.993Z,1.40
2022-10-15T03:10:05.486Z,1.90
2022-10-15T03:11:08.529Z,1.80
2022-10-15T03:12:10.560Z,1.63
2022-10-15T03:13:11.981Z,2.03
2022-10-15T03:14:20.595Z,1.93
2022-10-15T03:15:21.989Z,1.70
2022-10-15T03:16:23.329Z,1.97
2022-10-15T03:17:24.910Z,1.80
2022-10-15T03:18:26.516Z,1.70
2022-10-15T03:19:28.042Z,1.70
2022-10-15T03:20:29.577Z,1.50
2022-10-15T03:21:31.022Z,1.47
2022-10-15T03:22:38.676Z,1.40
2022-10-15T03:23:40.025Z,1.37
2022-10-15T03:24:48.163Z,1.40
2022-10-15T03:25:54.228Z,1.50
2022-10-15T03:26:56.652Z,1.30
2022-10-15T03:27:58.043Z,1.40
2022-10-15T03:29:07.537Z,1.23
2022-10-15T03:30:14.820Z,1.30
2022-10-15T03:31:16.733Z,1.20
2022-10-15T03:32:21.350Z,1.33
2022-10-15T03:33:25.040Z,1.30
2022-10-15T03:34:27.220Z,1.40
2022-10-15T03:35:28.966Z,1.43
2022-10-15T03:36:30.938Z,1.47
2022-10-15T03:37:33.322Z,1.60
2022-10-15T03:38:34.699Z,1.80
2022-10-15T03:39:38.548Z,1.80
2022-10-15T03:40:41.811Z,1.97
2022-10-15T03:41:57.848Z,1.90
2022-10-15T03:43:06.744Z,2.00
2022-10-15T03:44:09.002Z,1.80
2022-10-15T03:45:15.415Z,1.80
2022-10-15T03:46:16.885Z,2.33
2022-10-15T03:47:20.533Z,1.97
2022-10-15T03:48:23.583Z,1.90
2022-10-15T03:49:24.899Z,2.00
2022-10-15T03:50:26.289Z,2.27
2022-10-15T03:51:30.665Z,2.00
2022-10-15T03:52:38.919Z,2.23
2022-10-15T03:53:40.258Z,2.03
2022-10-15T03:54:41.724Z,2.33
2022-10-15T03:55:44.013Z,2.27
2022-10-15T03:56:45.403Z,2.07
2022-10-15T03:58:02.088Z,2.53
2022-10-15T03:59:04.486Z,2.20
2022-10-15T04:00:06.824Z,2.40
2022-10-15T04:01:15.292Z,2.40
2022-10-15T04:02:16.924Z,2.70
2022-10-15T04:03:18.515Z,2.20
2022-10-15T04:04:19.907Z,2.20
2022-10-15T04:05:21.429Z,2.20
2022-10-15T04:06:27.723Z,2.10
2022-10-15T04:07:29.082Z,2.53
2022-10-15T04:08:31.551Z,2.20
2022-10-15T04:09:32.878Z,2.07
2022-10-15T04:10:56.089Z,2.30
2022-10-15T04:11:57.888Z,2.20
2022-10-15T04:12:59.301Z,2.03
2022-10-15T04:14:01.890Z,2.00
2022-10-15T04:15:05.998Z,1.73
2022-10-15T04:16:07.383Z,2.00
2022-10-15T04:17:09.161Z,1.80
2022-10-15T04:18:10.593Z,1.80
2022-10-15T04:19:12.256Z,1.37
2022-10-15T04:20:15.372Z,1.33
2022-10-15T04:21:18.877Z,1.10
2022-10-15T04:22:25.027Z,1.40
2022-10-15T04:23:31.485Z,1.00
2022-10-15T04:24:56.832Z,0.90
2022-10-15T04:26:01.794Z,1.10
2022-10-15T04:27:04.032Z,1.00
2022-10-15T04:28:05.729Z,1.47
2022-10-15T04:29:09.086Z,0.90
2022-10-15T04:30:11.325Z,0.83
2022-10-15T04:31:16.907Z,0.70
2022-10-15T04:32:18.458Z,0.70
2022-10-15T04:33:20.863Z,0.60
2022-10-15T04:34:28.485Z,0.60
2022-10-15T04:35:29.894Z,0.60
2022-10-15T04:36:38.995Z,0.60
2022-10-15T04:37:46.436Z,0.50
2022-10-15T04:38:47.822Z,0.80
2022-10-15T04:39:55.387Z,0.90
2022-10-15T04:41:00.943Z,0.73
2022-10-15T04:42:09.007Z,0.63
2022-10-15T04:43:10.373Z,0.60
2022-10-15T04:44:12.271Z,0.70
2022-10-15T04:45:14.679Z,0.57
2022-10-15T04:46:16.204Z,0.70
2022-10-15T04:47:17.620Z,0.60
2022-10-15T04:48:23.586Z,0.60
2022-10-15T04:49:24.929Z,0.50
2022-10-15T04:50:26.481Z,0.43
2022-10-15T04:51:53.456Z,0.57
2022-10-15T04:53:03.274Z,0.50
2022-10-15T04:54:08.545Z,0.70
2022-10-15T04:55:13.424Z,0.70
2022-10-15T04:56:17.753Z,0.47
2022-10-15T04:57:20.699Z,0.57
2022-10-15T04:58:22.241Z,0.50
2022-10-15T04:59:23.627Z,0.50
2022-10-15T05:00:50.828Z,0.60
2022-10-15T05:02:05.938Z,0.60
2022-10-15T05:03:08.116Z,0.60
2022-10-15T05:04:26.456Z,0.80
2022-10-15T05:05:28.026Z,0.50
2022-10-15T05:06:34.834Z,0.50
2022-10-15T05:07:49.747Z,0.50
2022-10-15T05:08:51.604Z,0.60
2022-10-15T05:10:02.620Z,0.57
2022-10-15T05:11:05.278Z,0.53
2022-10-15T05:12:07.109Z,0.60
2022-10-15T05:13:10.004Z,0.60
2022-10-15T05:14:13.151Z,0.50
2022-10-15T05:15:14.528Z,0.40
2022-10-15T05:16:17.802Z,0.60
2022-10-15T05:17:19.678Z,0.50
2022-10-15T05:18:21.044Z,0.73
2022-10-15T05:19:26.016Z,0.60
2022-10-15T05:20:27.905Z,0.70
2022-10-15T05:21:31.131Z,0.60
2022-10-15T05:22:35.052Z,0.70
2022-10-15T05:23:37.236Z,0.67
2022-10-15T05:25:05.339Z,0.53
2022-10-15T05:26:12.789Z,0.70
2022-10-15T05:27:14.223Z,0.80
2022-10-15T05:28:16.445Z,0.60
2022-10-15T05:29:17.912Z,0.90
2022-10-15T05:30:19.365Z,0.90
2022-10-15T05:31:26.709Z,1.03
2022-10-15T05:32:36.508Z,1.10
2022-10-15T05:33:38.624Z,1.00
2022-10-15T05:34:39.995Z,0.80
2022-10-15T05:35:47.168Z,0.90
2022-10-15T05:36:48.471Z,0.80
2022-10-15T05:37:50.624Z,1.20
2022-10-15T05:38:53.402Z,1.00
2022-10-15T05:39:54.795Z,1.00
2022-10-15T05:40:56.302Z,0.80
2022-10-15T05:41:59.044Z,0.90
2022-10-15T05:43:11.410Z,1.20
2022-10-15T05:44:12.795Z,0.90
2022-10-15T05:45:14.258Z,1.00
2022-10-15T05:46:21.012Z,0.90
2022-10-15T05:47:27.956Z,0.80
2022-10-15T05:48:50.018Z,0.60
2022-10-15T05:49:51.506Z,0.87
2022-10-15T05:51:02.417Z,0.73
2022-10-15T05:52:03.925Z,1.00
2022-10-15T05:53:31.559Z,0.80
2022-10-15T05:54:39.924Z,0.70
2022-10-15T05:55:53.877Z,0.80
2022-10-15T05:56:56.463Z,0.80
2022-10-15T05:58:00.724Z,0.80
2022-10-15T05:59:03.186Z,0.80
2022-10-15T06:00:05.812Z,0.70
2022-10-15T06:01:13.796Z,0.63
2022-10-15T06:02:16.627Z,0.90
2022-10-15T06:03:18.005Z,1.00
2022-10-15T06:04:19.425Z,0.93
2022-10-15T06:05:21.832Z,1.00
2022-10-15T06:06:24.221Z,1.30
2022-10-15T06:07:25.831Z,1.10
2022-10-15T06:08:28.522Z,1.10
2022-10-15T06:09:30.645Z,1.50
2022-10-15T06:10:34.920Z,1.57
2022-10-15T06:11:36.400Z,1.50
2022-10-15T06:12:39.164Z,1.80
2022-10-15T06:13:41.268Z,1.70
2022-10-15T06:14:42.552Z,2.10
2022-10-15T06:15:44.694Z,2.03
2022-10-15T06:16:50.488Z,1.80
2022-10-15T06:17:55.042Z,2.20
2022-10-15T06:18:56.337Z,1.97
2022-10-15T06:19:57.694Z,2.00
2022-10-15T06:20:59.322Z,2.27
2022-10-15T06:22:00.644Z,2.07
2022-10-15T06:23:03.665Z,2.13
2022-10-15T06:24:09.133Z,3.73
2022-10-15T06:25:11.515Z,3.20
2022-10-15T06:26:12.898Z,2.80
2022-10-15T06:27:16.301Z,2.43
2022-10-15T06:28:17.854Z,2.67
2022-10-15T06:29:19.244Z,2.00
2022-10-15T06:30:20.689Z,2.27
2022-10-15T06:31:22.046Z,2.10
2022-10-15T06:32:23.374Z,2.07
2022-10-15T06:33:24.734Z,2.17
2022-10-15T06:34:26.112Z,1.87
2022-10-15T06:35:30.265Z,2.00
2022-10-15T06:36:31.607Z,1.90
2022-10-15T06:37:32.916Z,1.90
2022-10-15T06:38:34.555Z,1.93
2022-10-15T06:39:35.910Z,1.50
2022-10-15T06:40:37.774Z,1.73
2022-10-15T06:41:39.073Z,1.70
2022-10-15T06:42:40.449Z,1.50
2022-10-15T06:43:41.916Z,1.80
2022-10-15T06:44:43.867Z,1.60
2022-10-15T06:45:45.896Z,1.47
2022-10-15T06:46:51.246Z,1.73
2022-10-15T06:47:52.574Z,1.67
2022-10-15T06:48:55.758Z,1.40
2022-10-15T06:49:57.180Z,1.80
2022-10-15T06:50:59.533Z,1.70
2022-10-15T06:52:03.831Z,1.83
2022-10-15T06:53:05.442Z,1.80
2022-10-15T06:54:06.732Z,1.80
2022-10-15T06:55:08.238Z,2.00
2022-10-15T06:56:09.589Z,4.00
2022-10-15T06:57:12.925Z,2.80
2022-10-15T06:58:14.241Z,2.20
2022-10-15T06:59:15.582Z,2.30
2022-10-15T07:00:16.969Z,2.00
2022-10-15T07:01:18.389Z,5.93
2022-10-15T07:02:19.977Z,3.50
2022-10-15T07:03:21.290Z,2.57
2022-10-15T07:04:23.083Z,3.90
2022-10-15T07:05:24.427Z,2.33
2022-10-15T07:06:25.833Z,2.20
2022-10-15T07:07:27.201Z,1.83
2022-10-15T07:08:28.508Z,1.70
2022-10-15T07:09:29.861Z,1.90
2022-10-15T07:10:31.203Z,1.63
2022-10-15T07:11:32.617Z,1.80
2022-10-15T07:12:33.917Z,2.37
2022-10-15T07:13:35.544Z,2.00
2022-10-15T07:14:41.530Z,2.20
2022-10-15T07:15:44.639Z,1.90
2022-10-15T07:16:45.951Z,2.10
2022-10-15T07:17:51.488Z,1.70
2022-10-15T07:18:52.953Z,1.90
2022-10-15T07:19:54.369Z,2.00
2022-10-15T07:20:56.676Z,2.03
2022-10-15T07:21:58.021Z,2.23
2022-10-15T07:23:00.553Z,2.43
2022-10-15T07:24:05.067Z,2.20
2022-10-15T07:25:09.802Z,2.00
2022-10-15T07:26:12.433Z,1.97
2022-10-15T07:27:21.104Z,2.80
2022-10-15T07:28:22.459Z,2.13
2022-10-15T07:29:23.788Z,2.37
2022-10-15T07:30:28.344Z,3.47
2022-10-15T07:31:29.780Z,2.47
2022-10-15T07:32:31.170Z,2.10
2022-10-15T07:33:35.527Z,1.90
2022-10-15T07:34:36.927Z,1.93
2022-10-15T07:35:38.297Z,2.10
2022-10-15T07:36:39.639Z,1.83
2022-10-15T07:37:41.322Z,2.03
2022-10-15T07:38:42.773Z,2.03
2022-10-15T07:39:44.091Z,2.20
2022-10-15T07:40:45.443Z,1.70
2022-10-15T07:41:46.867Z,2.30
2022-10-15T07:42:58.189Z,2.27
2022-10-15T07:44:05.697Z,1.77
2022-10-15T07:45:07.291Z,1.70
2022-10-15T07:46:08.670Z,1.50
2022-10-15T07:47:10.099Z,1.70
2022-10-15T07:48:11.460Z,1.47
2022-10-15T07:49:12.830Z,1.77
2022-10-15T07:50:14.238Z,1.60
2022-10-15T07:51:15.537Z,1.90
2022-10-15T07:52:16.841Z,1.83
2022-10-15T07:53:20.559Z,1.80
2022-10-15T07:54:27.726Z,2.00
2022-10-15T07:55:29.263Z,2.00
2022-10-15T07:56:30.641Z,2.40
2022-10-15T07:57:32.112Z,2.40
2022-10-15T07:58:38.178Z,2.50
2022-10-15T07:59:39.590Z,2.37
2022-10-15T08:00:41.096Z,2.70
2022-10-15T08:01:44.165Z,2.67
2022-10-15T08:02:48.489Z,2.53
2022-10-15T08:03:54.643Z,3.10
2022-10-15T08:04:56.021Z,3.00
2022-10-15T08:06:00.016Z,2.63
2022-10-15T08:07:04.856Z,2.57
2022-10-15T08:08:09.265Z,2.40
2022-10-15T08:09:10.756Z,2.40
2022-10-15T08:10:13.415Z,2.23
2022-10-15T08:11:15.843Z,2.23
2022-10-15T08:12:17.228Z,2.70
2022-10-15T08:13:18.568Z,2.20
2022-10-15T08:14:23.795Z,2.30
2022-10-15T08:15:25.222Z,2.70
2022-10-15T08:16:26.747Z,2.30
2022-10-15T08:17:34.040Z,2.20
2022-10-15T08:18:36.240Z,2.20
2022-10-15T08:19:37.673Z,2.00
2022-10-15T08:20:39.529Z,2.13
2022-10-15T08:21:42.785Z,1.90
2022-10-15T08:22:46.578Z,1.90
2022-10-15T08:23:48.032Z,1.80
2022-10-15T08:24:49.500Z,2.10
2022-10-15T08:25:51.071Z,2.13
2022-10-15T08:26:52.441Z,1.70
2022-10-15T08:27:53.930Z,1.80
2022-10-15T08:28:55.340Z,1.93
2022-10-15T08:29:56.942Z,1.50
2022-10-15T08:31:02.636Z,1.97
2022-10-15T08:32:06.909Z,1.83
2022-10-15T08:33:08.222Z,1.90
2022-10-15T08:34:09.720Z,1.83
2022-10-15T08:35:11.172Z,1.80
2022-10-15T08:36:12.544Z,1.73
2022-10-15T08:38:19.764Z,2.40
2022-10-15T08:39:21.380Z,1.87
2022-10-15T08:40:22.917Z,1.87
2022-10-15T08:41:29.237Z,1.97
2022-10-15T08:42:32.541Z,2.00
2022-10-15T08:43:41.027Z,1.63
2022-10-15T08:44:53.455Z,1.87
2022-10-15T08:45:57.134Z,1.70
2022-10-15T08:47:06.472Z,1.83
2022-10-15T08:48:12.482Z,1.60
2022-10-15T08:49:24.812Z,1.90
2022-10-15T08:50:32.193Z,1.97
2022-10-15T08:51:39.497Z,2.90
2022-10-15T08:52:42.561Z,1.93
2022-10-15T08:53:48.180Z,2.77
2022-10-15T08:54:49.561Z,2.90
2022-10-15T08:55:53.394Z,2.70
2022-10-15T08:57:00.568Z,2.50
2022-10-15T08:58:04.669Z,2.13
2022-10-15T08:59:27.325Z,2.10
2022-10-15T09:00:55.021Z,1.60
2022-10-15T09:02:02.689Z,1.80
2022-10-15T09:03:22.835Z,1.87
2022-10-15T09:04:31.038Z,1.90
2022-10-15T09:05:32.316Z,1.57
2022-10-15T09:06:38.156Z,1.93
2022-10-15T09:07:43.330Z,2.07
2022-10-15T09:08:58.860Z,1.53
2022-10-15T09:10:12.356Z,2.00
2022-10-15T09:11:17.203Z,1.77
2022-10-15T09:12:44.936Z,1.90
2022-10-15T09:13:46.735Z,1.57
2022-10-15T09:14:58.572Z,1.70
2022-10-15T09:16:09.420Z,1.70
2022-10-15T09:17:19.060Z,1.50
2022-10-15T09:18:22.065Z,1.40
2022-10-15T09:19:24.944Z,1.50
2022-10-15T09:20:34.025Z,1.63
2022-10-15T09:21:35.654Z,1.57
2022-10-15T09:22:37.397Z,1.87
2022-10-15T09:23:39.001Z,1.50
2022-10-15T09:24:40.352Z,1.70
2022-10-15T09:25:44.187Z,1.87
2022-10-15T09:27:06.725Z,1.30
2022-10-15T09:28:13.710Z,1.20
2022-10-15T09:29:23.108Z,1.60
2022-10-15T09:30:33.424Z,1.10
2022-10-15T09:31:42.552Z,1.47
2022-10-15T09:32:50.583Z,1.33
2022-10-15T09:33:59.606Z,1.40
2022-10-15T09:35:04.269Z,1.23
2022-10-15T09:36:14.771Z,1.00
2022-10-15T09:37:31.642Z,1.37
2022-10-15T09:38:48.373Z,1.27
2022-10-15T09:40:01.778Z,0.83
2022-10-15T09:41:17.656Z,1.40
2022-10-15T09:42:28.319Z,1.30
2022-10-15T09:43:34.987Z,1.33
2022-10-15T09:44:40.756Z,1.20
2022-10-15T09:45:42.083Z,1.53
2022-10-15T09:46:47.551Z,1.00
2022-10-15T09:47:48.909Z,1.10
2022-10-15T09:49:06.043Z,0.90
2022-10-15T09:50:08.559Z,1.10
2022-10-15T09:51:31.277Z,1.03
2022-10-15T09:52:47.741Z,1.27
2022-10-15T09:53:55.173Z,1.10
2022-10-15T09:55:08.033Z,1.20
2022-10-15T09:56:18.324Z,0.90
2022-10-15T09:57:21.355Z,1.00
2022-10-15T09:58:25.570Z,0.80
2022-10-15T09:59:27.177Z,1.07
2022-10-15T10:00:48.658Z,0.97
2022-10-15T10:01:56.688Z,1.00
2022-10-15T10:03:14.096Z,1.10
2022-10-15T10:04:21.716Z,1.07
2022-10-15T10:05:29.903Z,1.10
2022-10-15T10:06:31.196Z,1.30
2022-10-15T10:07:38.485Z,1.43
2022-10-15T10:08:54.518Z,1.27
2022-10-15T10:09:57.766Z,1.10
2022-10-15T10:11:00.583Z,0.73
2022-10-15T10:12:03.327Z,0.90
2022-10-15T10:13:07.760Z,1.00
2022-10-15T10:14:21.772Z,0.90
2022-10-15T10:15:30.949Z,0.80
2022-10-15T10:16:33.740Z,0.80
2022-10-15T10:17:36.664Z,0.80
2022-10-15T10:18:38.248Z,0.67
2022-10-15T10:19:42.330Z,0.80
2022-10-15T10:20:52.410Z,0.73
2022-10-15T10:22:05.989Z,0.80
2022-10-15T10:23:24.128Z,0.67
2022-10-15T10:24:31.634Z,0.70
2022-10-15T10:25:36.567Z,0.60
2022-10-15T10:26:37.937Z,0.80
2022-10-15T10:27:44.859Z,0.80
2022-10-15T10:28:49.943Z,1.00
2022-10-15T10:29:56.692Z,0.70
2022-10-15T10:30:58.357Z,0.67
2022-10-15T10:31:59.736Z,0.70
2022-10-15T10:33:01.504Z,0.93
2022-10-15T10:34:03.243Z,0.87
2022-10-15T10:35:05.392Z,0.90
2022-10-15T10:36:07.586Z,1.00
2022-10-15T10:37:10.139Z,1.63
2022-10-15T10:38:31.770Z,1.00
2022-10-15T10:39:34.783Z,0.90
2022-10-15T10:40:36.292Z,2.30
2022-10-15T10:42:03.793Z,1.50
2022-10-15T10:43:17.096Z,0.87
2022-10-15T10:44:34.397Z,0.70
2022-10-15T10:45:35.809Z,0.60
2022-10-15T10:46:37.117Z,0.70
2022-10-15T10:47:39.411Z,0.90
2022-10-15T10:48:44.759Z,0.80
2022-10-15T10:49:47.411Z,0.83
2022-10-15T10:50:51.487Z,1.10
2022-10-15T10:51:52.847Z,0.90
2022-10-15T10:52:54.368Z,0.90
2022-10-15T10:53:57.288Z,1.00
2022-10-15T10:54:59.102Z,1.20
2022-10-15T10:56:01.850Z,1.10
2022-10-15T10:57:04.248Z,1.80
2022-10-15T10:58:09.801Z,1.47
2022-10-15T10:59:23.490Z,1.20
2022-10-15T11:00:24.860Z,1.20
2022-10-15T11:01:27.171Z,1.40
2022-10-15T11:02:28.569Z,1.10
2022-10-15T11:03:34.683Z,0.70
2022-10-15T11:04:38.883Z,0.70
2022-10-15T11:05:40.565Z,0.80
2022-10-15T11:06:45.176Z,1.50
2022-10-15T11:07:56.902Z,1.30
2022-10-15T11:09:15.692Z,1.33
2022-10-15T11:10:26.033Z,4.80
2022-10-15T11:11:33.369Z,4.47
2022-10-15T11:12:43.523Z,1.83
2022-10-15T11:13:44.843Z,2.23
2022-10-15T11:15:03.285Z,1.80
2022-10-15T11:16:23.403Z,2.03
2022-10-15T11:17:25.063Z,2.23
2022-10-15T11:18:33.719Z,1.60
2022-10-15T11:21:19.103Z,1.00
2022-10-15T11:22:22.891Z,0.80
2022-10-15T11:23:32.849Z,0.93
2022-10-15T11:24:42.892Z,1.00
2022-10-15T11:26:00.167Z,0.80
2022-10-15T11:27:13.266Z,0.90
2022-10-15T11:28:14.633Z,0.90
2022-10-15T11:29:23.926Z,0.80
2022-10-15T11:30:44.076Z,0.70
2022-10-15T11:32:14.261Z,0.70
2022-10-15T11:33:16.600Z,0.70
2022-10-15T11:34:25.927Z,0.90
2022-10-15T11:35:51.996Z,0.60
2022-10-15T11:37:00.165Z,0.63
2022-10-15T11:38:20.541Z,0.90
2022-10-15T11:39:30.976Z,0.60
2022-10-15T11:40:37.174Z,0.70
2022-10-15T11:42:07.965Z,0.80
2022-10-15T11:43:15.184Z,0.90
2022-10-15T11:44:16.511Z,0.80
2022-10-15T11:45:21.027Z,0.90
2022-10-15T11:46:25.287Z,0.70
2022-10-15T11:47:26.624Z,0.70
2022-10-15T11:48:38.400Z,0.70
2022-10-15T11:49:39.801Z,0.80
2022-10-15T11:50:43.302Z,0.70
2022-10-15T11:51:47.661Z,0.70
2022-10-15T11:52:58.591Z,0.90
2022-10-15T11:54:04.742Z,0.87
2022-10-15T11:55:13.945Z,0.70
2022-10-15T11:56:41.988Z,0.60
2022-10-15T11:57:44.498Z,0.90
2022-10-15T11:58:49.504Z,1.00
2022-10-15T11:59:56.875Z,1.03
2022-10-15T12:01:00.266Z,0.80
2022-10-15T12:02:20.261Z,0.80
2022-10-15T12:03:25.497Z,1.00
2022-10-15T12:04:29.001Z,0.70
2022-10-15T12:05:41.597Z,0.60
2022-10-15T12:06:47.229Z,0.90
2022-10-15T12:07:49.666Z,0.90
2022-10-15T12:08:54.923Z,0.80
2022-10-15T12:10:00.613Z,0.87
2022-10-15T12:11:07.197Z,0.80
2022-10-15T12:12:27.300Z,0.83
2022-10-15T12:13:33.812Z,0.90
2022-10-15T12:14:53.130Z,0.93
2022-10-15T12:16:12.516Z,1.03
2022-10-15T12:17:23.043Z,1.30
2022-10-15T12:18:42.599Z,1.03
2022-10-15T12:19:50.074Z,0.97
2022-10-15T12:20:55.151Z,1.00
2022-10-15T12:21:56.522Z,0.90
2022-10-15T12:22:59.368Z,2.63
2022-10-15T12:24:01.239Z,1.20
2022-10-15T12:25:02.646Z,1.63
2022-10-15T12:26:23.456Z,1.57
2022-10-15T12:27:35.038Z,1.07
2022-10-15T12:28:36.391Z,1.10
2022-10-15T12:29:37.772Z,1.10
2022-10-15T12:30:42.441Z,0.90
2022-10-15T12:31:46.409Z,0.90
2022-10-15T12:32:48.627Z,1.17
2022-10-15T12:33:51.343Z,1.00
2022-10-15T12:34:56.863Z,0.97
2022-10-15T12:35:59.914Z,0.97
2022-10-15T12:37:15.580Z,0.77
2022-10-15T12:38:23.353Z,1.00
2022-10-15T12:39:47.708Z,0.77
2022-10-15T12:40:46.917Z,0.93
2022-10-15T12:41:48.908Z,0.80
2022-10-15T12:43:13.456Z,0.97
2022-10-15T12:44:17.698Z,1.00
2022-10-15T12:45:22.635Z,1.00
2022-10-15T12:46:35.158Z,0.90
2022-10-15T12:47:56.410Z,1.23
2022-10-15T12:48:58.148Z,0.83
2022-10-15T12:50:02.358Z,1.30
2022-10-15T12:51:30.102Z,0.90
2022-10-15T12:52:49.511Z,0.90
2022-10-15T12:53:52.412Z,1.00
2022-10-15T12:54:57.775Z,1.10
2022-10-15T12:56:10.839Z,1.20
2022-10-15T12:57:30.971Z,1.33
2022-10-15T12:58:33.978Z,1.40
2022-10-15T12:59:44.636Z,1.10
2022-10-15T13:00:46.221Z,1.07
2022-10-15T13:01:51.292Z,0.70
2022-10-15T13:02:53.527Z,0.90
2022-10-15T13:03:56.077Z,0.80
2022-10-15T13:04:57.712Z,1.10
2022-10-15T13:06:17.381Z,1.00
2022-10-15T13:07:18.737Z,1.10
2022-10-15T13:08:23.304Z,1.00
2022-10-15T13:09:28.780Z,1.23
2022-10-15T13:10:30.152Z,0.80
2022-10-15T13:11:33.207Z,1.30
2022-10-15T13:12:36.073Z,1.00
2022-10-15T13:13:37.503Z,1.10
2022-10-15T13:14:42.639Z,0.80
2022-10-15T13:15:53.216Z,0.70
2022-10-15T13:16:57.814Z,0.90
2022-10-15T13:17:59.771Z,1.20
2022-10-15T13:19:02.511Z,1.70
2022-10-15T13:20:05.700Z,1.03
2022-10-15T13:21:09.913Z,1.00
2022-10-15T13:22:22.056Z,1.10
2022-10-15T13:23:31.085Z,1.53
2022-10-15T13:24:43.712Z,1.20
2022-10-15T13:25:48.959Z,1.20
2022-10-15T13:26:50.777Z,1.43
2022-10-15T13:27:52.078Z,1.70
2022-10-15T13:28:56.562Z,1.30
2022-10-15T13:30:02.066Z,1.40
2022-10-15T13:31:06.254Z,1.00
2022-10-15T13:32:13.217Z,1.17
2022-10-15T13:33:15.097Z,1.20
2022-10-15T13:34:16.381Z,1.00
2022-10-15T13:35:23.787Z,1.33
2022-10-15T13:36:30.949Z,1.23
2022-10-15T13:37:34.359Z,1.20
2022-10-15T13:38:37.165Z,1.07
2022-10-15T13:39:41.482Z,1.00
2022-10-15T13:40:47.114Z,1.23
2022-10-15T13:41:49.129Z,1.00
2022-10-15T13:43:07.128Z,1.00
2022-10-15T13:44:19.374Z,0.80
2022-10-15T13:45:20.744Z,1.00
2022-10-15T13:46:23.638Z,1.00
2022-10-15T13:47:26.881Z,1.00
2022-10-15T13:48:29.965Z,0.97
2022-10-15T13:49:31.508Z,1.10
2022-10-15T13:50:35.008Z,1.10
2022-10-15T13:51:43.757Z,1.27
2022-10-15T13:53:08.154Z,1.77
2022-10-15T13:54:12.003Z,1.00
2022-10-15T13:55:18.143Z,1.10
2022-10-15T13:56:19.420Z,1.10
2022-10-15T13:57:20.795Z,1.10
2022-10-15T13:58:27.455Z,1.10
2022-10-15T13:59:30.114Z,1.10
2022-10-15T14:00:33.720Z,1.57
2022-10-15T14:01:36.867Z,1.47
2022-10-15T14:02:38.213Z,1.30
2022-10-15T14:03:46.307Z,1.77
2022-10-15T14:04:47.609Z,1.43
2022-10-15T14:05:50.763Z,1.37
2022-10-15T14:07:15.463Z,1.10
2022-10-15T14:08:18.206Z,1.00
2022-10-15T14:09:22.832Z,1.27
2022-10-15T14:10:24.158Z,0.80
2022-10-15T14:11:25.919Z,0.90
2022-10-15T14:12:27.265Z,0.90
2022-10-15T14:13:29.043Z,1.10
2022-10-15T14:14:46.595Z,1.30
2022-10-15T14:15:47.994Z,0.90
2022-10-15T14:16:49.461Z,0.90
2022-10-15T14:17:51.801Z,1.17
2022-10-15T14:19:05.462Z,0.97
2022-10-15T14:20:27.788Z,0.90
2022-10-15T14:21:32.299Z,1.00
2022-10-15T14:22:34.698Z,1.30
2022-10-15T14:23:36.093Z,1.40
2022-10-15T14:24:38.524Z,1.70
2022-10-15T14:25:40.378Z,1.50
2022-10-15T14:26:42.330Z,1.47
2022-10-15T14:27:46.452Z,1.23
2022-10-15T14:28:50.938Z,1.03
2022-10-15T14:29:53.903Z,0.63
2022-10-15T14:30:55.563Z,0.90
2022-10-15T14:31:57.158Z,0.90
2022-10-15T14:32:58.660Z,0.87
2022-10-15T14:34:00.137Z,0.97